createdAt,value
2019-04-06T00:00:43.542Z,8.27
2019-04-06T00:03:12.704Z,8.19
2019-04-06T00:05:42.183Z,8.16
2019-04-06T00:08:11.945Z,8.10
2019-04-06T00:10:41.335Z,7.93
2019-04-06T00:13:10.413Z,8.00
2019-04-06T00:15:39.882Z,8.03
2019-04-06T00:18:08.997Z,8.05
2019-04-06T00:20:38.086Z,8.10
2019-04-06T00:23:07.194Z,8.16
2019-04-06T00:25:44.158Z,8.17
2019-04-06T00:28:07.416Z,8.20
2019-04-06T00:30:44.855Z,8.27
2019-04-06T00:33:16.100Z,8.31
2019-04-06T00:35:45.496Z,8.36
2019-04-06T00:38:14.668Z,8.42
2019-04-06T00:40:43.832Z,8.47
2019-04-06T00:43:12.938Z,8.52
2019-04-06T00:45:42.458Z,8.56
2019-04-06T00:48:12.044Z,8.67
2019-04-06T00:50:41.193Z,8.78
2019-04-06T00:53:10.330Z,8.87
2019-04-06T00:55:39.430Z,8.88
2019-04-06T00:58:08.500Z,8.91
2019-04-06T01:00:37.591Z,8.89
2019-04-06T01:03:06.684Z,8.82
2019-04-06T01:05:35.772Z,8.90
2019-04-06T01:08:04.939Z,8.97
2019-04-06T01:10:34.076Z,8.99
2019-04-06T01:13:03.178Z,9.00
2019-04-06T01:15:32.302Z,8.97
2019-04-06T01:18:01.426Z,8.94
2019-04-06T01:20:30.892Z,8.99
2019-04-06T01:23:00.001Z,8.99
2019-04-06T01:25:29.107Z,9.04
2019-04-06T01:27:58.603Z,9.06
2019-04-06T01:30:27.749Z,9.09
2019-04-06T01:32:57.149Z,9.00
2019-04-06T01:35:26.226Z,9.09
2019-04-06T01:37:55.392Z,9.16
2019-04-06T01:40:24.620Z,9.17
2019-04-06T01:42:53.744Z,9.23
2019-04-06T01:45:22.832Z,9.20
2019-04-06T01:47:52.654Z,9.27
2019-04-06T01:50:22.148Z,9.27
2019-04-06T01:52:51.225Z,9.29
2019-04-06T01:55:20.312Z,9.28
2019-04-06T01:57:49.414Z,9.27
2019-04-06T02:00:18.739Z,9.25
2019-04-06T02:02:50.348Z,9.24
2019-04-06T02:05:19.823Z,9.27
2019-04-06T02:07:49.865Z,9.25
2019-04-06T02:10:19.150Z,9.21
2019-04-06T02:12:48.244Z,9.19
2019-04-06T02:15:17.325Z,9.22
2019-04-06T02:17:46.389Z,9.19
2019-04-06T02:20:15.482Z,9.16
2019-04-06T02:22:44.529Z,9.24
2019-04-06T02:25:14.297Z,9.18
2019-04-06T02:27:43.376Z,9.16
2019-04-06T02:30:25.875Z,9.14
2019-04-06T02:33:20.338Z,9.11
2019-04-06T02:36:14.326Z,9.05
2019-04-06T02:39:00.697Z,9.02
2019-04-06T02:41:46.584Z,9.04
2019-04-06T02:44:15.754Z,9.08
2019-04-06T02:46:45.114Z,9.08
2019-04-06T02:49:14.230Z,9.04
2019-04-06T02:51:43.668Z,8.98
2019-04-06T02:54:13.138Z,9.00
2019-04-06T02:56:46.478Z,8.95
2019-04-06T02:59:12.947Z,9.00
2019-04-06T03:01:42.461Z,8.99
2019-04-06T03:04:11.554Z,9.01
2019-04-06T03:06:41.454Z,8.99
2019-04-06T03:09:12.017Z,9.04
2019-04-06T03:11:41.644Z,9.02
2019-04-06T03:14:11.062Z,9.05
2019-04-06T03:16:40.121Z,9.04
2019-04-06T03:19:09.224Z,9.08
2019-04-06T03:21:38.310Z,9.10
2019-04-06T03:24:07.357Z,9.16
2019-04-06T03:26:36.518Z,9.20
2019-04-06T03:29:05.690Z,9.17
2019-04-06T03:31:35.173Z,9.19
2019-04-06T03:34:04.302Z,9.18
2019-04-06T03:36:33.745Z,9.17
2019-04-06T03:39:04.859Z,9.14
2019-04-06T03:41:34.280Z,9.11
2019-04-06T03:44:04.216Z,9.11
2019-04-06T03:46:34.043Z,9.09
2019-04-06T03:49:03.431Z,9.15
2019-04-06T03:51:32.581Z,9.06
2019-04-06T03:54:01.655Z,9.03
2019-04-06T03:56:31.127Z,9.00
2019-04-06T03:59:00.229Z,8.93
2019-04-06T04:01:29.608Z,8.92
2019-04-06T04:03:59.106Z,8.97
2019-04-06T04:06:28.629Z,8.98
2019-04-06T04:08:57.754Z,8.89
2019-04-06T04:11:26.800Z,8.88
2019-04-06T04:13:56.227Z,8.89
2019-04-06T04:16:25.339Z,8.89
2019-04-06T04:18:54.368Z,8.85
2019-04-06T04:21:23.870Z,8.76
2019-04-06T04:23:53.360Z,8.76
2019-04-06T04:26:23.345Z,8.71
2019-04-06T04:28:52.555Z,8.75
2019-04-06T04:31:21.861Z,8.68
2019-04-06T04:33:50.857Z,8.66
2019-04-06T04:36:20.180Z,8.69
2019-04-06T04:38:49.270Z,8.62
2019-04-06T04:41:19.047Z,8.60
2019-04-06T04:43:48.096Z,8.53
2019-04-06T04:46:17.153Z,8.50
2019-04-06T04:48:46.311Z,8.46
2019-04-06T04:51:15.461Z,8.47
2019-04-06T04:53:44.894Z,8.50
2019-04-06T04:56:13.985Z,8.44
2019-04-06T04:58:43.103Z,8.36
2019-04-06T05:01:12.128Z,8.26
2019-04-06T05:03:41.162Z,8.21
2019-04-06T05:06:10.250Z,8.18
2019-04-06T05:08:39.320Z,8.12
2019-04-06T05:11:08.537Z,8.12
2019-04-06T05:13:37.718Z,8.06
2019-04-06T05:16:11.270Z,8.06
2019-04-06T05:18:41.398Z,8.03
2019-04-06T05:21:11.146Z,7.99
2019-04-06T05:23:40.170Z,7.93
2019-04-06T05:26:09.754Z,7.90
2019-04-06T05:28:38.813Z,7.91
2019-04-06T05:31:07.846Z,7.89
2019-04-06T05:33:36.969Z,7.86
2019-04-06T05:36:06.195Z,7.88
2019-04-06T05:38:35.537Z,7.85
2019-04-06T05:41:05.187Z,7.85
2019-04-06T05:43:34.267Z,7.88
2019-04-06T05:46:03.487Z,7.91
2019-04-06T05:48:32.892Z,8.00
2019-04-06T05:51:01.930Z,8.06
2019-04-06T05:53:30.954Z,8.13
2019-04-06T05:56:00.625Z,8.13
2019-04-06T05:58:30.040Z,8.16
2019-04-06T06:00:59.029Z,8.22
2019-04-06T06:03:28.380Z,8.31
2019-04-06T06:05:57.430Z,8.40
2019-04-06T06:08:26.467Z,8.47
2019-04-06T06:10:55.878Z,8.54
2019-04-06T06:13:25.249Z,8.58
2019-04-06T06:15:54.239Z,8.59
2019-04-06T06:18:27.331Z,8.61
2019-04-06T06:20:54.416Z,8.65
2019-04-06T06:23:23.521Z,8.64
2019-04-06T06:25:52.682Z,8.73
2019-04-06T06:28:21.750Z,8.77
2019-04-06T06:30:51.095Z,8.95
2019-04-06T06:33:20.137Z,8.99
2019-04-06T06:35:49.681Z,9.08
2019-04-06T06:38:18.746Z,9.16
2019-04-06T06:40:47.833Z,9.19
2019-04-06T06:43:17.481Z,9.28
2019-04-06T06:45:46.511Z,9.36
2019-04-06T06:48:15.568Z,9.52
2019-04-06T06:50:44.631Z,9.52
2019-04-06T06:53:13.829Z,9.51
2019-04-06T06:55:42.837Z,9.52
2019-04-06T06:58:12.198Z,9.48
2019-04-06T07:00:41.218Z,9.62
2019-04-06T07:03:10.361Z,9.76
2019-04-06T07:05:40.434Z,9.90
2019-04-06T07:08:09.800Z,10.07
2019-04-06T07:10:39.376Z,10.30
2019-04-06T07:13:08.496Z,10.46
2019-04-06T07:15:43.407Z,10.68
2019-04-06T07:18:13.046Z,10.82
2019-04-06T07:20:42.514Z,11.01
2019-04-06T07:23:11.763Z,11.12
2019-04-06T07:25:43.643Z,10.99
2019-04-06T07:28:13.300Z,11.20
2019-04-06T07:30:42.366Z,11.33
2019-04-06T07:33:11.747Z,11.38
2019-04-06T07:35:40.849Z,11.63
2019-04-06T07:38:11.241Z,11.72
2019-04-06T07:40:40.627Z,11.80
2019-04-06T07:43:09.752Z,11.78
2019-04-06T07:45:39.219Z,11.84
2019-04-06T07:48:11.110Z,11.93
2019-04-06T07:50:40.625Z,12.05
2019-04-06T07:53:09.821Z,12.15
2019-04-06T07:55:38.770Z,12.06
2019-04-06T07:58:08.091Z,12.11
2019-04-06T08:00:37.514Z,12.07
2019-04-06T08:03:06.550Z,12.19
2019-04-06T08:05:35.674Z,12.11
2019-04-06T08:08:05.033Z,12.24
2019-04-06T08:10:34.145Z,12.31
2019-04-06T08:13:03.630Z,12.33
2019-04-06T08:15:32.656Z,12.47
2019-04-06T08:18:01.823Z,12.53
2019-04-06T08:20:31.223Z,12.54
2019-04-06T08:23:00.589Z,12.87
2019-04-06T08:25:29.946Z,13.19
2019-04-06T08:27:59.640Z,13.42
2019-04-06T08:30:28.830Z,13.40
2019-04-06T08:32:57.933Z,13.60
2019-04-06T08:35:27.500Z,13.96
2019-04-06T08:37:56.823Z,13.96
2019-04-06T08:40:25.871Z,14.05
2019-04-06T08:42:54.898Z,14.08
2019-04-06T08:45:24.065Z,14.28
2019-04-06T08:47:53.133Z,14.26
2019-04-06T08:50:24.827Z,14.68
2019-04-06T08:52:53.887Z,14.90
2019-04-06T08:55:22.974Z,15.62
2019-04-06T08:57:52.538Z,16.24
2019-04-06T09:00:21.853Z,16.25
2019-04-06T09:02:50.998Z,16.63
2019-04-06T09:05:20.342Z,16.36
2019-04-06T09:07:49.413Z,16.42
2019-04-06T09:10:18.772Z,16.51
2019-04-06T09:12:47.863Z,17.40
2019-04-06T09:15:18.046Z,18.13
2019-04-06T09:17:47.455Z,18.70
2019-04-06T09:20:16.542Z,18.65
2019-04-06T09:22:45.885Z,18.69
2019-04-06T09:25:15.161Z,19.00
2019-04-06T09:27:44.376Z,18.35
2019-04-06T09:30:13.811Z,19.43
2019-04-06T09:32:43.221Z,19.18
2019-04-06T09:35:12.690Z,18.98
2019-04-06T09:37:41.985Z,19.07
2019-04-06T09:40:12.506Z,19.02
2019-04-06T09:42:41.932Z,18.40
2019-04-06T09:45:41.318Z,18.16
2019-04-06T09:48:34.733Z,17.35
2019-04-06T09:51:26.373Z,17.51
2019-04-06T09:54:13.992Z,17.74
2019-04-06T09:56:50.377Z,16.88
2019-04-06T09:59:48.392Z,16.52
2019-04-06T10:02:36.588Z,17.01
2019-04-06T10:05:28.621Z,16.30
2019-04-06T10:08:15.067Z,15.98
2019-04-06T10:11:08.985Z,15.43
2019-04-06T10:14:00.205Z,15.15
2019-04-06T10:16:38.738Z,15.12
2019-04-06T10:19:41.722Z,15.31
2019-04-06T10:22:29.865Z,15.27
2019-04-06T10:25:16.976Z,14.98
2019-04-06T10:28:03.750Z,15.23
2019-04-06T10:30:43.416Z,15.30
2019-04-06T10:33:31.576Z,15.23
2019-04-06T10:36:22.621Z,15.05
2019-04-06T10:39:28.892Z,15.06
2019-04-06T10:42:04.723Z,15.17
2019-04-06T10:45:02.603Z,15.63
2019-04-06T10:48:00.106Z,15.68
2019-04-06T10:50:46.019Z,15.59
2019-04-06T10:53:32.547Z,15.50
2019-04-06T10:56:20.803Z,15.41
2019-04-06T10:59:24.160Z,15.40
2019-04-06T11:02:24.093Z,15.30
2019-04-06T11:05:02.696Z,15.39
2019-04-06T11:07:49.742Z,15.73
2019-04-06T11:10:47.494Z,15.98
2019-04-06T11:13:35.498Z,16.41
2019-04-06T11:16:26.413Z,16.67
2019-04-06T11:19:28.962Z,16.69
2019-04-06T11:22:14.266Z,17.27
2019-04-06T11:24:58.853Z,17.69
2019-04-06T11:27:50.404Z,17.64
2019-04-06T11:30:41.632Z,18.21
2019-04-06T11:33:32.652Z,18.21
2019-04-06T11:36:14.818Z,17.68
2019-04-06T11:39:15.055Z,18.37
2019-04-06T11:42:05.850Z,19.00
2019-04-06T11:44:57.158Z,18.12
2019-04-06T11:47:38.192Z,17.86
2019-04-06T11:50:23.657Z,18.96
2019-04-06T11:53:10.853Z,19.57
2019-04-06T11:55:58.902Z,20.13
2019-04-06T11:58:38.031Z,19.78
2019-04-06T12:01:32.444Z,20.88
2019-04-06T12:04:20.692Z,21.22
2019-04-06T12:07:04.992Z,21.55
2019-04-06T12:09:56.119Z,21.36
2019-04-06T12:12:56.608Z,20.76
2019-04-06T12:15:47.837Z,20.77
2019-04-06T12:18:36.138Z,19.82
2019-04-06T12:21:39.511Z,19.17
2019-04-06T12:24:19.506Z,18.46
2019-04-06T12:27:06.279Z,18.06
2019-04-06T12:29:57.214Z,17.81
2019-04-06T12:32:40.574Z,17.78
2019-04-06T12:35:27.192Z,18.88
2019-04-06T12:38:15.261Z,20.09
2019-04-06T12:41:03.518Z,19.03
2019-04-06T12:43:55.168Z,18.65
2019-04-06T12:46:42.452Z,18.91
2019-04-06T12:49:30.488Z,19.22
2019-04-06T12:52:24.809Z,19.87
2019-04-06T12:55:08.375Z,19.80
2019-04-06T12:57:56.468Z,19.95
2019-04-06T13:00:52.613Z,20.17
2019-04-06T13:03:46.512Z,20.23
2019-04-06T13:06:44.154Z,18.80
2019-04-06T13:09:30.935Z,18.54
2019-04-06T13:12:34.685Z,18.95
2019-04-06T13:15:19.117Z,18.70
2019-04-06T13:18:05.976Z,18.38
2019-04-06T13:20:50.670Z,18.36
2019-04-06T13:23:50.878Z,18.17
2019-04-06T13:26:45.251Z,17.84
2019-04-06T13:29:33.296Z,17.83
2019-04-06T13:32:21.656Z,17.69
2019-04-06T13:35:12.734Z,18.23
2019-04-06T13:38:02.304Z,19.62
2019-04-06T13:40:55.321Z,19.98
2019-04-06T13:43:38.364Z,20.03
2019-04-06T13:46:32.499Z,19.26
2019-04-06T13:49:10.657Z,18.95
2019-04-06T13:51:56.081Z,18.75
2019-04-06T13:54:48.196Z,18.99
2019-04-06T13:57:42.441Z,18.71
2019-04-06T14:00:26.232Z,18.39
2019-04-06T14:03:02.153Z,17.99
2019-04-06T14:05:58.580Z,18.73
2019-04-06T14:08:49.315Z,18.78
2019-04-06T14:11:34.646Z,18.86
2019-04-06T14:14:30.262Z,18.81
2019-04-06T14:17:21.329Z,19.23
2019-04-06T14:20:08.368Z,19.62
2019-04-06T14:22:53.032Z,19.56
2019-04-06T14:25:32.977Z,20.18
2019-04-06T14:28:24.197Z,19.58
2019-04-06T14:31:25.560Z,19.65
2019-04-06T14:33:59.459Z,18.83
2019-04-06T14:36:49.592Z,18.35
2019-04-06T14:39:26.168Z,18.51
2019-04-06T14:42:20.157Z,19.17
2019-04-06T14:45:11.364Z,19.66
2019-04-06T14:48:02.700Z,20.09
2019-04-06T14:50:53.425Z,19.96
2019-04-06T14:53:57.131Z,19.89
2019-04-06T14:56:46.771Z,19.84
2019-04-06T14:59:36.683Z,19.48
2019-04-06T15:02:12.107Z,19.27
2019-04-06T15:04:52.853Z,19.04
2019-04-06T15:07:30.825Z,19.11
2019-04-06T15:10:09.752Z,19.24
2019-04-06T15:12:59.770Z,19.11
2019-04-06T15:15:54.289Z,18.69
2019-04-06T15:18:49.097Z,19.02
2019-04-06T15:21:40.491Z,19.14
2019-04-06T15:24:29.247Z,19.18
2019-04-06T15:27:26.151Z,18.96
2019-04-06T15:30:08.933Z,18.51
2019-04-06T15:32:54.540Z,18.13
2019-04-06T15:35:50.880Z,17.85
2019-04-06T15:38:39.488Z,17.59
2019-04-06T15:41:30.386Z,17.79
2019-04-06T15:44:10.489Z,17.80
2019-04-06T15:47:07.320Z,17.90
2019-04-06T15:50:05.547Z,17.86
2019-04-06T15:52:46.356Z,17.71
2019-04-06T15:55:34.868Z,17.38
2019-04-06T15:58:09.492Z,17.45
2019-04-06T16:00:56.596Z,17.26
2019-04-06T16:03:43.147Z,17.22
2019-04-06T16:06:31.177Z,17.10
2019-04-06T16:09:37.286Z,16.89
2019-04-06T16:12:37.567Z,17.17
2019-04-06T16:15:27.811Z,17.15
2019-04-06T16:18:19.942Z,16.99
2019-04-06T16:21:07.467Z,17.18
2019-04-06T16:23:45.735Z,16.90
2019-04-06T16:26:34.322Z,17.08
2019-04-06T16:29:30.390Z,17.46
2019-04-06T16:32:33.474Z,17.43
2019-04-06T16:35:21.177Z,17.34
2019-04-06T16:38:08.058Z,17.04
2019-04-06T16:41:11.235Z,17.18
2019-04-06T16:44:02.319Z,17.24
2019-04-06T16:46:49.085Z,17.47
2019-04-06T16:49:46.469Z,17.64
2019-04-06T16:52:33.782Z,17.67
2019-04-06T16:55:27.813Z,17.78
2019-04-06T16:58:14.627Z,17.67
2019-04-06T17:01:05.694Z,17.76
2019-04-06T17:03:47.818Z,17.87
2019-04-06T17:06:31.805Z,17.74
2019-04-06T17:09:15.634Z,17.74
2019-04-06T17:12:02.387Z,17.42
2019-04-06T17:14:51.679Z,16.96
2019-04-06T17:17:31.951Z,16.80
2019-04-06T17:20:20.522Z,16.70
2019-04-06T17:23:07.404Z,16.54
2019-04-06T17:25:54.195Z,16.57
2019-04-06T17:28:48.382Z,16.26
2019-04-06T17:31:34.827Z,16.20
2019-04-06T17:34:10.164Z,16.29
2019-04-06T17:37:07.414Z,16.29
2019-04-06T17:39:58.458Z,16.19
2019-04-06T17:42:47.141Z,15.94
2019-04-06T17:45:41.414Z,15.99
2019-04-06T17:48:28.368Z,15.98
2019-04-06T17:51:09.135Z,15.96
2019-04-06T17:54:04.004Z,15.99
2019-04-06T17:56:54.793Z,15.81
2019-04-06T17:59:36.853Z,15.61
2019-04-06T18:02:27.907Z,15.35
2019-04-06T18:05:14.128Z,15.39
2019-04-06T18:07:53.585Z,15.35
2019-04-06T18:10:39.453Z,15.08
2019-04-06T18:13:36.755Z,14.99
2019-04-06T18:16:06.051Z,14.80
2019-04-06T18:18:35.248Z,14.63
2019-04-06T18:21:05.018Z,14.62
2019-04-06T18:23:34.596Z,14.50
2019-04-06T18:26:03.691Z,14.40
2019-04-06T18:28:33.050Z,14.02
2019-04-06T18:31:08.578Z,13.89
2019-04-06T18:33:38.037Z,13.74
2019-04-06T18:36:07.162Z,13.58
2019-04-06T18:38:40.065Z,13.52
2019-04-06T18:41:10.180Z,13.25
2019-04-06T18:43:39.930Z,13.06
2019-04-06T18:46:08.969Z,12.97
2019-04-06T18:48:38.300Z,12.89
2019-04-06T18:51:07.656Z,12.87
2019-04-06T18:53:37.106Z,12.85
2019-04-06T18:56:06.657Z,12.83
2019-04-06T18:58:36.745Z,12.77
2019-04-06T19:01:06.473Z,12.78
2019-04-06T19:03:35.700Z,12.74
2019-04-06T19:06:05.038Z,12.61
2019-04-06T19:08:36.543Z,12.49
2019-04-06T19:11:05.761Z,12.44
2019-04-06T19:13:35.424Z,12.40
2019-04-06T19:16:04.967Z,12.26
2019-04-06T19:18:34.027Z,12.35
2019-04-06T19:21:03.129Z,12.27
2019-04-06T19:23:32.252Z,12.16
2019-04-06T19:26:01.868Z,12.02
2019-04-06T19:28:32.274Z,11.95
2019-04-06T19:31:01.311Z,11.83
2019-04-06T19:33:30.553Z,11.75
2019-04-06T19:35:59.941Z,11.60
2019-04-06T19:38:28.997Z,11.65
2019-04-06T19:40:58.629Z,11.61
2019-04-06T19:43:27.674Z,11.51
2019-04-06T19:45:57.040Z,11.51
2019-04-06T19:48:26.100Z,11.33
2019-04-06T19:50:55.166Z,11.28
2019-04-06T19:53:24.917Z,11.49
2019-04-06T19:55:54.722Z,11.47
2019-04-06T19:58:23.816Z,11.67
2019-04-06T20:00:53.600Z,11.47
2019-04-06T20:03:33.691Z,11.28
2019-04-06T20:05:53.573Z,11.16
2019-04-06T20:08:23.074Z,11.03
2019-04-06T20:10:53.140Z,10.96
2019-04-06T20:13:22.318Z,10.80
2019-04-06T20:15:51.807Z,10.80
2019-04-06T20:18:21.405Z,10.75
2019-04-06T20:20:51.078Z,10.75
2019-04-06T20:23:20.736Z,10.71
2019-04-06T20:25:50.291Z,10.56
2019-04-06T20:28:19.615Z,10.56
2019-04-06T20:30:48.780Z,10.62
2019-04-06T20:33:19.915Z,10.55
2019-04-06T20:35:48.834Z,10.58
2019-04-06T20:38:17.978Z,10.58
2019-04-06T20:40:47.171Z,10.62
2019-04-06T20:43:16.397Z,10.65
2019-04-06T20:45:46.525Z,10.55
2019-04-06T20:48:15.651Z,10.56
2019-04-06T20:50:45.094Z,10.42
2019-04-06T20:53:14.610Z,10.29
2019-04-06T20:55:44.199Z,10.31
2019-04-06T20:58:13.850Z,10.35
2019-04-06T21:00:43.710Z,10.21
2019-04-06T21:03:12.790Z,10.20
2019-04-06T21:05:42.547Z,10.20
2019-04-06T21:08:12.141Z,10.26
2019-04-06T21:10:41.292Z,10.22
2019-04-06T21:13:11.173Z,10.40
2019-04-06T21:15:40.960Z,10.49
2019-04-06T21:18:10.033Z,10.56
2019-04-06T21:20:39.370Z,10.52
2019-04-06T21:23:08.733Z,10.36
2019-04-06T21:25:38.704Z,10.35
2019-04-06T21:28:07.882Z,10.35
2019-04-06T21:30:37.696Z,10.45
2019-04-06T21:33:07.932Z,10.36
2019-04-06T21:35:37.072Z,10.29
2019-04-06T21:38:06.653Z,10.19
2019-04-06T21:40:35.812Z,10.15
2019-04-06T21:43:04.852Z,10.21
2019-04-06T21:45:34.428Z,10.20
2019-04-06T21:48:04.160Z,10.23
2019-04-06T21:50:34.212Z,10.27
2019-04-06T21:53:03.731Z,10.21
2019-04-06T21:55:33.058Z,10.18
2019-04-06T21:58:02.986Z,10.13
2019-04-06T22:00:52.583Z,10.10
2019-04-06T22:03:22.312Z,10.03
2019-04-06T22:05:52.003Z,9.96
2019-04-06T22:08:21.626Z,9.95
2019-04-06T22:10:50.733Z,9.99
2019-04-06T22:13:20.676Z,10.14
2019-04-06T22:15:49.800Z,10.23
2019-04-06T22:18:19.332Z,10.38
2019-04-06T22:20:48.900Z,10.16
2019-04-06T22:23:18.555Z,10.26
2019-04-06T22:25:47.731Z,10.26
2019-04-06T22:28:16.792Z,10.40
2019-04-06T22:30:45.975Z,10.40
2019-04-06T22:33:14.956Z,10.43
2019-04-06T22:35:44.294Z,10.61
2019-04-06T22:38:13.468Z,10.81
2019-04-06T22:40:43.140Z,10.80
2019-04-06T22:43:12.352Z,10.81
2019-04-06T22:45:41.542Z,10.79
2019-04-06T22:48:10.642Z,10.68
2019-04-06T22:50:39.839Z,10.53
2019-04-06T22:53:09.383Z,10.37
2019-04-06T22:55:38.988Z,10.33
2019-04-06T22:58:08.214Z,10.27
2019-04-06T23:00:40.732Z,10.29
2019-04-06T23:03:27.558Z,10.09
2019-04-06T23:05:59.677Z,10.15
2019-04-06T23:08:29.068Z,10.07
2019-04-06T23:10:58.151Z,10.13
2019-04-06T23:13:27.923Z,10.11
2019-04-06T23:15:57.677Z,10.13
2019-04-06T23:18:27.469Z,10.13
2019-04-06T23:20:56.759Z,10.06
2019-04-06T23:23:25.869Z,10.03
2019-04-06T23:25:55.263Z,10.03
2019-04-06T23:28:24.419Z,10.00
2019-04-06T23:30:53.582Z,9.97
2019-04-06T23:33:22.794Z,9.93
2019-04-06T23:35:52.213Z,9.99
2019-04-06T23:38:21.760Z,10.01
2019-04-06T23:40:50.814Z,10.18
2019-04-06T23:43:19.858Z,10.25
2019-04-06T23:45:48.855Z,10.26
2019-04-06T23:48:18.833Z,10.15
2019-04-06T23:50:48.360Z,10.24
2019-04-06T23:53:18.110Z,10.30
2019-04-06T23:55:47.816Z,10.26
2019-04-06T23:58:17.777Z,10.23
